sensor_id;sensor_type;location;lat;lon;timestamp;temperature;humidity
48860;DHT22;34679;51.436;-2.518;2023-07-29T00:01:44;16.10;99.90
48860;DHT22;34679;51.436;-2.518;2023-07-29T00:04:09;16.10;99.90
48860;DHT22;34679;51.436;-2.518;2023-07-29T00:06:35;16.10;99.90
48860;DHT22;34679;51.436;-2.518;2023-07-29T00:09:02;16.10;99.90
48860;DHT22;34679;51.436;-2.518;2023-07-29T00:11:27;16.00;99.90
48860;DHT22;34679;51.436;-2.518;2023-07-29T00:13:53;16.10;99.90
48860;DHT22;34679;51.436;-2.518;2023-07-29T00:16:20;16.00;99.90
48860;DHT22;34679;51.436;-2.518;2023-07-29T00:18:49;16.00;99.90
48860;DHT22;34679;51.436;-2.518;2023-07-29T00:21:14;16.00;99.90
48860;DHT22;34679;51.436;-2.518;2023-07-29T00:23:40;16.00;99.90
48860;DHT22;34679;51.436;-2.518;2023-07-29T00:26:06;16.00;99.90
48860;DHT22;34679;51.436;-2.518;2023-07-29T00:28:32;15.90;99.90
48860;DHT22;34679;51.436;-2.518;2023-07-29T00:30:57;15.90;99.90
48860;DHT22;34679;51.436;-2.518;2023-07-29T00:33:23;15.90;99.90
48860;DHT22;34679;51.436;-2.518;2023-07-29T00:35:49;15.90;99.90
48860;DHT22;34679;51.436;-2.518;2023-07-29T00:38:15;15.90;99.90
48860;DHT22;34679;51.436;-2.518;2023-07-29T00:40:40;15.90;99.90
48860;DHT22;34679;51.436;-2.518;2023-07-29T00:43:06;15.90;99.90
48860;DHT22;34679;51.436;-2.518;2023-07-29T00:45:32;15.80;99.90
48860;DHT22;34679;51.436;-2.518;2023-07-29T00:47:59;15.80;99.90
48860;DHT22;34679;51.436;-2.518;2023-07-29T00:50:26;15.80;99.90
48860;DHT22;34679;51.436;-2.518;2023-07-29T00:52:54;15.80;99.90
48860;DHT22;34679;51.436;-2.518;2023-07-29T00:55:20;15.80;99.90
48860;DHT22;34679;51.436;-2.518;2023-07-29T00:57:46;15.90;99.90
48860;DHT22;34679;51.436;-2.518;2023-07-29T01:00:14;15.90;99.90
48860;DHT22;34679;51.436;-2.518;2023-07-29T01:02:42;15.80;99.90
48860;DHT22;34679;51.436;-2.518;2023-07-29T01:05:08;15.90;99.90
48860;DHT22;34679;51.436;-2.518;2023-07-29T01:13:46;15.80;99.90
48860;DHT22;34679;51.436;-2.518;2023-07-29T01:16:25;15.80;99.90
48860;DHT22;34679;51.436;-2.518;2023-07-29T01:18:55;15.90;99.90
48860;DHT22;34679;51.436;-2.518;2023-07-29T01:21:21;16.00;99.90
48860;DHT22;34679;51.436;-2.518;2023-07-29T01:23:47;15.90;99.90
48860;DHT22;34679;51.436;-2.518;2023-07-29T01:26:13;15.90;99.90
48860;DHT22;34679;51.436;-2.518;2023-07-29T01:28:39;15.90;99.90
48860;DHT22;34679;51.436;-2.518;2023-07-29T01:31:23;15.90;99.90
48860;DHT22;34679;51.436;-2.518;2023-07-29T01:34:44;15.90;99.90
48860;DHT22;34679;51.436;-2.518;2023-07-29T01:36:51;15.90;99.90
48860;DHT22;34679;51.436;-2.518;2023-07-29T01:39:19;15.90;99.90
48860;DHT22;34679;51.436;-2.518;2023-07-29T01:41:48;15.90;99.90
48860;DHT22;34679;51.436;-2.518;2023-07-29T01:44:14;15.90;99.90
48860;DHT22;34679;51.436;-2.518;2023-07-29T01:46:40;15.90;99.90
48860;DHT22;34679;51.436;-2.518;2023-07-29T01:49:05;15.90;99.90
48860;DHT22;34679;51.436;-2.518;2023-07-29T01:51:31;15.80;99.90
48860;DHT22;34679;51.436;-2.518;2023-07-29T01:53:57;15.80;99.90
48860;DHT22;34679;51.436;-2.518;2023-07-29T01:56:24;15.80;99.90
48860;DHT22;34679;51.436;-2.518;2023-07-29T01:58:50;15.80;99.90
48860;DHT22;34679;51.436;-2.518;2023-07-29T02:01:16;15.80;99.90
48860;DHT22;34679;51.436;-2.518;2023-07-29T02:03:41;15.70;99.90
48860;DHT22;34679;51.436;-2.518;2023-07-29T02:06:07;15.70;99.90
48860;DHT22;34679;51.436;-2.518;2023-07-29T02:08:33;15.70;99.90
48860;DHT22;34679;51.436;-2.518;2023-07-29T02:10:58;15.60;99.90
48860;DHT22;34679;51.436;-2.518;2023-07-29T02:13:24;15.60;99.90
48860;DHT22;34679;51.436;-2.518;2023-07-29T02:15:49;15.60;99.90
48860;DHT22;34679;51.436;-2.518;2023-07-29T02:18:15;15.60;99.90
48860;DHT22;34679;51.436;-2.518;2023-07-29T02:20:41;15.50;99.90
48860;DHT22;34679;51.436;-2.518;2023-07-29T02:23:11;15.50;99.90
48860;DHT22;34679;51.436;-2.518;2023-07-29T02:25:37;15.40;99.90
48860;DHT22;34679;51.436;-2.518;2023-07-29T02:28:03;15.40;99.90
48860;DHT22;34679;51.436;-2.518;2023-07-29T02:30:29;15.40;99.90
48860;DHT22;34679;51.436;-2.518;2023-07-29T02:32:55;15.40;99.90
48860;DHT22;34679;51.436;-2.518;2023-07-29T02:35:20;15.40;99.90
48860;DHT22;34679;51.436;-2.518;2023-07-29T02:37:47;15.40;99.90
48860;DHT22;34679;51.436;-2.518;2023-07-29T02:40:13;15.40;99.90
48860;DHT22;34679;51.436;-2.518;2023-07-29T02:42:38;15.50;99.90
48860;DHT22;34679;51.436;-2.518;2023-07-29T02:45:04;15.40;99.90
48860;DHT22;34679;51.436;-2.518;2023-07-29T02:47:30;15.50;99.90
48860;DHT22;34679;51.436;-2.518;2023-07-29T02:49:56;15.50;99.90
48860;DHT22;34679;51.436;-2.518;2023-07-29T02:52:22;15.50;99.90
48860;DHT22;34679;51.436;-2.518;2023-07-29T02:54:47;15.50;99.90
48860;DHT22;34679;51.436;-2.518;2023-07-29T02:57:14;15.50;99.90
48860;DHT22;34679;51.436;-2.518;2023-07-29T02:59:40;15.50;99.90
48860;DHT22;34679;51.436;-2.518;2023-07-29T03:02:05;15.50;99.90
48860;DHT22;34679;51.436;-2.518;2023-07-29T03:04:31;15.40;99.90
48860;DHT22;34679;51.436;-2.518;2023-07-29T03:06:57;15.40;99.90
48860;DHT22;34679;51.436;-2.518;2023-07-29T03:09:23;15.40;99.90
48860;DHT22;34679;51.436;-2.518;2023-07-29T03:11:49;15.40;99.90
48860;DHT22;34679;51.436;-2.518;2023-07-29T03:14:16;15.30;99.90
48860;DHT22;34679;51.436;-2.518;2023-07-29T03:16:42;15.30;99.90
48860;DHT22;34679;51.436;-2.518;2023-07-29T03:19:07;15.30;99.90
48860;DHT22;34679;51.436;-2.518;2023-07-29T03:21:33;15.40;99.90
48860;DHT22;34679;51.436;-2.518;2023-07-29T03:23:59;15.40;99.90
48860;DHT22;34679;51.436;-2.518;2023-07-29T03:26:24;15.40;99.90
48860;DHT22;34679;51.436;-2.518;2023-07-29T03:28:50;15.40;99.90
48860;DHT22;34679;51.436;-2.518;2023-07-29T03:31:16;15.30;99.90
48860;DHT22;34679;51.436;-2.518;2023-07-29T03:33:42;15.30;99.90
48860;DHT22;34679;51.436;-2.518;2023-07-29T03:36:08;15.30;99.90
48860;DHT22;34679;51.436;-2.518;2023-07-29T03:38:33;15.30;99.90
48860;DHT22;34679;51.436;-2.518;2023-07-29T03:41:00;15.20;99.90
48860;DHT22;34679;51.436;-2.518;2023-07-29T03:43:28;15.20;99.90
48860;DHT22;34679;51.436;-2.518;2023-07-29T03:45:55;15.10;99.90
48860;DHT22;34679;51.436;-2.518;2023-07-29T03:48:20;15.00;99.90
48860;DHT22;34679;51.436;-2.518;2023-07-29T03:50:46;14.90;99.90
48860;DHT22;34679;51.436;-2.518;2023-07-29T03:53:12;15.00;99.90
48860;DHT22;34679;51.436;-2.518;2023-07-29T03:55:37;15.00;99.90
48860;DHT22;34679;51.436;-2.518;2023-07-29T03:58:03;15.00;99.90
48860;DHT22;34679;51.436;-2.518;2023-07-29T04:00:29;15.00;99.90
48860;DHT22;34679;51.436;-2.518;2023-07-29T04:02:54;15.00;99.90
48860;DHT22;34679;51.436;-2.518;2023-07-29T04:05:20;15.00;99.90
48860;DHT22;34679;51.436;-2.518;2023-07-29T04:07:46;14.90;99.90
48860;DHT22;34679;51.436;-2.518;2023-07-29T04:10:12;14.90;99.90
48860;DHT22;34679;51.436;-2.518;2023-07-29T04:12:38;14.90;99.90
48860;DHT22;34679;51.436;-2.518;2023-07-29T04:15:04;15.00;99.90
48860;DHT22;34679;51.436;-2.518;2023-07-29T04:17:30;14.90;99.90
48860;DHT22;34679;51.436;-2.518;2023-07-29T04:19:56;14.90;99.90
48860;DHT22;34679;51.436;-2.518;2023-07-29T04:22:22;14.90;99.90
48860;DHT22;34679;51.436;-2.518;2023-07-29T04:24:47;14.90;99.90
48860;DHT22;34679;51.436;-2.518;2023-07-29T04:27:13;15.00;99.90
48860;DHT22;34679;51.436;-2.518;2023-07-29T04:29:39;15.00;99.90
48860;DHT22;34679;51.436;-2.518;2023-07-29T04:32:05;15.00;99.90
48860;DHT22;34679;51.436;-2.518;2023-07-29T04:34:31;15.10;99.90
48860;DHT22;34679;51.436;-2.518;2023-07-29T04:36:57;15.10;99.90
48860;DHT22;34679;51.436;-2.518;2023-07-29T04:39:23;15.10;99.90
48860;DHT22;34679;51.436;-2.518;2023-07-29T04:41:49;15.20;99.90
48860;DHT22;34679;51.436;-2.518;2023-07-29T04:44:14;15.20;99.90
48860;DHT22;34679;51.436;-2.518;2023-07-29T04:46:40;15.20;99.90
48860;DHT22;34679;51.436;-2.518;2023-07-29T04:49:06;15.20;99.90
48860;DHT22;34679;51.436;-2.518;2023-07-29T04:51:31;15.20;99.90
48860;DHT22;34679;51.436;-2.518;2023-07-29T04:53:58;15.20;99.90
48860;DHT22;34679;51.436;-2.518;2023-07-29T04:56:24;15.30;99.90
48860;DHT22;34679;51.436;-2.518;2023-07-29T04:58:49;15.40;99.90
48860;DHT22;34679;51.436;-2.518;2023-07-29T05:01:15;15.30;99.90
48860;DHT22;34679;51.436;-2.518;2023-07-29T05:03:41;15.20;99.90
48860;DHT22;34679;51.436;-2.518;2023-07-29T05:06:06;15.20;99.90
48860;DHT22;34679;51.436;-2.518;2023-07-29T05:08:32;15.20;99.90
48860;DHT22;34679;51.436;-2.518;2023-07-29T05:10:58;15.20;99.90
48860;DHT22;34679;51.436;-2.518;2023-07-29T05:13:23;15.10;99.90
48860;DHT22;34679;51.436;-2.518;2023-07-29T05:15:49;15.10;99.90
48860;DHT22;34679;51.436;-2.518;2023-07-29T05:18:16;15.20;99.90
48860;DHT22;34679;51.436;-2.518;2023-07-29T05:20:42;15.30;99.90
48860;DHT22;34679;51.436;-2.518;2023-07-29T05:23:07;15.40;99.90
48860;DHT22;34679;51.436;-2.518;2023-07-29T05:25:33;15.70;99.90
48860;DHT22;34679;51.436;-2.518;2023-07-29T05:28:02;15.90;99.90
48860;DHT22;34679;51.436;-2.518;2023-07-29T05:30:29;16.20;99.90
48860;DHT22;34679;51.436;-2.518;2023-07-29T05:32:57;16.90;99.90
48860;DHT22;34679;51.436;-2.518;2023-07-29T05:35:23;17.90;99.90
48860;DHT22;34679;51.436;-2.518;2023-07-29T05:37:48;19.00;99.90
48860;DHT22;34679;51.436;-2.518;2023-07-29T05:40:14;20.00;99.90
48860;DHT22;34679;51.436;-2.518;2023-07-29T05:42:40;20.90;99.90
48860;DHT22;34679;51.436;-2.518;2023-07-29T05:45:06;21.60;99.90
48860;DHT22;34679;51.436;-2.518;2023-07-29T05:47:32;22.20;99.90
48860;DHT22;34679;51.436;-2.518;2023-07-29T05:49:58;22.20;99.90
48860;DHT22;34679;51.436;-2.518;2023-07-29T05:52:23;21.90;99.90
48860;DHT22;34679;51.436;-2.518;2023-07-29T05:54:49;21.60;99.90
48860;DHT22;34679;51.436;-2.518;2023-07-29T05:57:15;21.10;99.90
48860;DHT22;34679;51.436;-2.518;2023-07-29T05:59:40;20.70;99.90
48860;DHT22;34679;51.436;-2.518;2023-07-29T06:02:06;20.30;99.90
48860;DHT22;34679;51.436;-2.518;2023-07-29T06:04:31;20.00;99.90
48860;DHT22;34679;51.436;-2.518;2023-07-29T06:06:57;19.70;99.90
48860;DHT22;34679;51.436;-2.518;2023-07-29T06:09:23;19.50;99.90
48860;DHT22;34679;51.436;-2.518;2023-07-29T06:11:50;19.40;99.90
48860;DHT22;34679;51.436;-2.518;2023-07-29T06:14:16;19.10;99.90
48860;DHT22;34679;51.436;-2.518;2023-07-29T06:16:42;18.70;99.90
48860;DHT22;34679;51.436;-2.518;2023-07-29T06:19:08;18.50;99.90
48860;DHT22;34679;51.436;-2.518;2023-07-29T06:21:35;18.20;99.90
48860;DHT22;34679;51.436;-2.518;2023-07-29T06:24:01;18.20;99.90
48860;DHT22;34679;51.436;-2.518;2023-07-29T06:26:27;18.20;99.90
48860;DHT22;34679;51.436;-2.518;2023-07-29T06:28:53;18.40;99.90
48860;DHT22;34679;51.436;-2.518;2023-07-29T06:31:19;18.80;99.90
48860;DHT22;34679;51.436;-2.518;2023-07-29T06:33:45;19.90;99.90
48860;DHT22;34679;51.436;-2.518;2023-07-29T06:36:11;21.20;99.90
48860;DHT22;34679;51.436;-2.518;2023-07-29T06:38:37;22.60;99.90
48860;DHT22;34679;51.436;-2.518;2023-07-29T06:41:04;23.30;99.90
48860;DHT22;34679;51.436;-2.518;2023-07-29T06:43:30;23.90;99.90
48860;DHT22;34679;51.436;-2.518;2023-07-29T06:45:55;23.80;99.90
48860;DHT22;34679;51.436;-2.518;2023-07-29T06:48:21;23.20;99.90
48860;DHT22;34679;51.436;-2.518;2023-07-29T06:50:47;22.40;99.90
48860;DHT22;34679;51.436;-2.518;2023-07-29T06:53:13;21.50;99.90
48860;DHT22;34679;51.436;-2.518;2023-07-29T06:55:38;21.00;99.90
48860;DHT22;34679;51.436;-2.518;2023-07-29T06:58:04;20.60;99.90
48860;DHT22;34679;51.436;-2.518;2023-07-29T07:00:30;20.30;99.90
48860;DHT22;34679;51.436;-2.518;2023-07-29T07:02:56;20.10;99.90
48860;DHT22;34679;51.436;-2.518;2023-07-29T07:05:21;19.90;99.90
48860;DHT22;34679;51.436;-2.518;2023-07-29T07:07:47;19.60;99.90
48860;DHT22;34679;51.436;-2.518;2023-07-29T07:10:14;19.60;99.90
48860;DHT22;34679;51.436;-2.518;2023-07-29T07:12:39;19.20;99.90
48860;DHT22;34679;51.436;-2.518;2023-07-29T07:15:05;19.20;99.90
48860;DHT22;34679;51.436;-2.518;2023-07-29T07:17:31;19.80;99.90
48860;DHT22;34679;51.436;-2.518;2023-07-29T07:19:57;20.50;99.90
48860;DHT22;34679;51.436;-2.518;2023-07-29T07:22:22;21.70;99.90
48860;DHT22;34679;51.436;-2.518;2023-07-29T07:24:49;22.50;99.90
48860;DHT22;34679;51.436;-2.518;2023-07-29T07:27:15;23.50;99.90
48860;DHT22;34679;51.436;-2.518;2023-07-29T07:29:40;23.90;99.90
48860;DHT22;34679;51.436;-2.518;2023-07-29T07:32:06;23.60;99.90
48860;DHT22;34679;51.436;-2.518;2023-07-29T07:34:32;23.10;99.90
48860;DHT22;34679;51.436;-2.518;2023-07-29T07:36:58;22.50;99.90
48860;DHT22;34679;51.436;-2.518;2023-07-29T07:39:24;22.10;99.90
48860;DHT22;34679;51.436;-2.518;2023-07-29T07:41:50;21.80;99.90
48860;DHT22;34679;51.436;-2.518;2023-07-29T07:44:16;21.70;99.90
48860;DHT22;34679;51.436;-2.518;2023-07-29T07:46:43;21.50;99.90
48860;DHT22;34679;51.436;-2.518;2023-07-29T07:49:10;21.40;99.90
48860;DHT22;34679;51.436;-2.518;2023-07-29T07:51:35;21.10;99.90
48860;DHT22;34679;51.436;-2.518;2023-07-29T07:54:01;21.00;99.90
48860;DHT22;34679;51.436;-2.518;2023-07-29T07:56:27;21.00;99.90
48860;DHT22;34679;51.436;-2.518;2023-07-29T07:58:52;21.00;99.90
48860;DHT22;34679;51.436;-2.518;2023-07-29T08:01:18;21.00;99.90
48860;DHT22;34679;51.436;-2.518;2023-07-29T08:03:43;21.10;99.90
48860;DHT22;34679;51.436;-2.518;2023-07-29T08:06:09;21.60;99.90
48860;DHT22;34679;51.436;-2.518;2023-07-29T08:08:35;22.30;99.90
48860;DHT22;34679;51.436;-2.518;2023-07-29T08:11:00;22.50;99.90
48860;DHT22;34679;51.436;-2.518;2023-07-29T08:13:26;22.70;99.90
48860;DHT22;34679;51.436;-2.518;2023-07-29T08:15:52;23.00;99.90
48860;DHT22;34679;51.436;-2.518;2023-07-29T08:18:19;24.00;99.90
48860;DHT22;34679;51.436;-2.518;2023-07-29T08:20:55;25.10;99.90
48860;DHT22;34679;51.436;-2.518;2023-07-29T08:23:21;26.10;99.90
48860;DHT22;34679;51.436;-2.518;2023-07-29T08:25:58;26.20;99.90
48860;DHT22;34679;51.436;-2.518;2023-07-29T08:28:45;26.20;99.90
48860;DHT22;34679;51.436;-2.518;2023-07-29T08:31:11;26.60;99.90
48860;DHT22;34679;51.436;-2.518;2023-07-29T08:33:36;26.10;99.90
48860;DHT22;34679;51.436;-2.518;2023-07-29T08:36:02;25.50;99.90
48860;DHT22;34679;51.436;-2.518;2023-07-29T08:38:28;24.60;99.90
48860;DHT22;34679;51.436;-2.518;2023-07-29T08:43:29;23.10;99.90
48860;DHT22;34679;51.436;-2.518;2023-07-29T08:45:57;23.00;99.90
48860;DHT22;34679;51.436;-2.518;2023-07-29T08:48:33;22.90;99.90
48860;DHT22;34679;51.436;-2.518;2023-07-29T08:51:03;22.80;99.90
48860;DHT22;34679;51.436;-2.518;2023-07-29T08:53:31;22.50;99.90
48860;DHT22;34679;51.436;-2.518;2023-07-29T08:55:57;22.80;99.90
48860;DHT22;34679;51.436;-2.518;2023-07-29T08:58:23;22.80;99.90
48860;DHT22;34679;51.436;-2.518;2023-07-29T09:00:50;22.60;99.90
48860;DHT22;34679;51.436;-2.518;2023-07-29T09:03:16;22.90;99.90
48860;DHT22;34679;51.436;-2.518;2023-07-29T09:05:42;22.70;99.90
48860;DHT22;34679;51.436;-2.518;2023-07-29T09:08:07;22.60;99.90
48860;DHT22;34679;51.436;-2.518;2023-07-29T09:10:37;21.80;99.90
48860;DHT22;34679;51.436;-2.518;2023-07-29T09:13:04;22.30;99.90
48860;DHT22;34679;51.436;-2.518;2023-07-29T09:15:32;23.20;99.90
48860;DHT22;34679;51.436;-2.518;2023-07-29T09:17:58;24.40;99.90
48860;DHT22;34679;51.436;-2.518;2023-07-29T09:20:28;24.00;99.90
48860;DHT22;34679;51.436;-2.518;2023-07-29T09:22:55;23.50;99.90
48860;DHT22;34679;51.436;-2.518;2023-07-29T09:25:25;23.10;99.90
48860;DHT22;34679;51.436;-2.518;2023-07-29T09:27:51;23.30;99.90
48860;DHT22;34679;51.436;-2.518;2023-07-29T09:30:17;23.80;99.90
48860;DHT22;34679;51.436;-2.518;2023-07-29T09:32:43;24.20;99.90
48860;DHT22;34679;51.436;-2.518;2023-07-29T09:35:12;24.60;99.90
48860;DHT22;34679;51.436;-2.518;2023-07-29T09:37:39;24.60;99.90
48860;DHT22;34679;51.436;-2.518;2023-07-29T09:40:06;23.80;99.90
48860;DHT22;34679;51.436;-2.518;2023-07-29T09:42:32;23.10;99.90
48860;DHT22;34679;51.436;-2.518;2023-07-29T09:44:58;22.40;99.90
48860;DHT22;34679;51.436;-2.518;2023-07-29T09:47:25;21.50;99.90
48860;DHT22;34679;51.436;-2.518;2023-07-29T09:49:52;21.30;99.90
48860;DHT22;34679;51.436;-2.518;2023-07-29T09:52:18;21.60;99.90
48860;DHT22;34679;51.436;-2.518;2023-07-29T09:54:45;22.40;99.90
48860;DHT22;34679;51.436;-2.518;2023-07-29T09:57:14;22.90;99.90
48860;DHT22;34679;51.436;-2.518;2023-07-29T09:59:40;23.10;99.90
48860;DHT22;34679;51.436;-2.518;2023-07-29T10:02:13;22.90;99.90
48860;DHT22;34679;51.436;-2.518;2023-07-29T10:04:44;22.30;99.90
48860;DHT22;34679;51.436;-2.518;2023-07-29T10:07:11;21.70;99.90
48860;DHT22;34679;51.436;-2.518;2023-07-29T10:09:39;20.30;99.90
48860;DHT22;34679;51.436;-2.518;2023-07-29T10:12:06;21.60;99.90
48860;DHT22;34679;51.436;-2.518;2023-07-29T10:14:32;21.80;99.90
48860;DHT22;34679;51.436;-2.518;2023-07-29T10:16:59;22.30;99.90
48860;DHT22;34679;51.436;-2.518;2023-07-29T10:19:25;22.90;99.90
48860;DHT22;34679;51.436;-2.518;2023-07-29T10:21:52;22.70;99.90
48860;DHT22;34679;51.436;-2.518;2023-07-29T10:24:24;21.60;99.90
48860;DHT22;34679;51.436;-2.518;2023-07-29T10:26:58;21.30;99.90
48860;DHT22;34679;51.436;-2.518;2023-07-29T10:29:24;22.00;99.90
48860;DHT22;34679;51.436;-2.518;2023-07-29T10:31:54;22.70;99.90
48860;DHT22;34679;51.436;-2.518;2023-07-29T10:34:23;23.20;99.90
48860;DHT22;34679;51.436;-2.518;2023-07-29T10:36:50;23.10;99.90
48860;DHT22;34679;51.436;-2.518;2023-07-29T10:39:17;22.20;99.90
48860;DHT22;34679;51.436;-2.518;2023-07-29T10:42:00;21.90;99.90
48860;DHT22;34679;51.436;-2.518;2023-07-29T10:49:43;21.50;99.90
48860;DHT22;34679;51.436;-2.518;2023-07-29T10:52:13;21.10;99.90
48860;DHT22;34679;51.436;-2.518;2023-07-29T10:54:44;21.50;99.90
48860;DHT22;34679;51.436;-2.518;2023-07-29T10:57:31;21.50;99.90
48860;DHT22;34679;51.436;-2.518;2023-07-29T10:59:57;21.00;99.90
48860;DHT22;34679;51.436;-2.518;2023-07-29T11:02:29;21.00;99.90
48860;DHT22;34679;51.436;-2.518;2023-07-29T11:04:56;21.40;99.90
48860;DHT22;34679;51.436;-2.518;2023-07-29T11:07:31;21.80;99.90
48860;DHT22;34679;51.436;-2.518;2023-07-29T11:10:08;21.50;99.90
48860;DHT22;34679;51.436;-2.518;2023-07-29T11:12:44;21.10;99.90
48860;DHT22;34679;51.436;-2.518;2023-07-29T11:20:12;21.70;99.90
48860;DHT22;34679;51.436;-2.518;2023-07-29T11:22:39;21.60;99.90
48860;DHT22;34679;51.436;-2.518;2023-07-29T11:25:06;22.10;99.90
48860;DHT22;34679;51.436;-2.518;2023-07-29T11:27:32;22.10;99.90
48860;DHT22;34679;51.436;-2.518;2023-07-29T11:30:06;21.60;99.90
48860;DHT22;34679;51.436;-2.518;2023-07-29T11:32:32;21.50;99.90
48860;DHT22;34679;51.436;-2.518;2023-07-29T11:35:06;21.50;99.90
48860;DHT22;34679;51.436;-2.518;2023-07-29T11:37:33;21.10;99.90
48860;DHT22;34679;51.436;-2.518;2023-07-29T11:39:59;21.30;99.90
48860;DHT22;34679;51.436;-2.518;2023-07-29T11:42:26;21.40;99.90
48860;DHT22;34679;51.436;-2.518;2023-07-29T11:44:52;21.40;99.90
48860;DHT22;34679;51.436;-2.518;2023-07-29T11:47:17;21.40;99.90
48860;DHT22;34679;51.436;-2.518;2023-07-29T11:49:43;21.40;99.90
48860;DHT22;34679;51.436;-2.518;2023-07-29T11:52:10;21.50;99.90
48860;DHT22;34679;51.436;-2.518;2023-07-29T11:54:36;21.50;99.90
48860;DHT22;34679;51.436;-2.518;2023-07-29T11:57:07;21.40;99.90
48860;DHT22;34679;51.436;-2.518;2023-07-29T11:59:35;21.30;99.90
48860;DHT22;34679;51.436;-2.518;2023-07-29T12:02:02;21.60;99.90
48860;DHT22;34679;51.436;-2.518;2023-07-29T12:04:30;21.50;99.90
48860;DHT22;34679;51.436;-2.518;2023-07-29T12:06:57;21.30;99.90
48860;DHT22;34679;51.436;-2.518;2023-07-29T12:09:23;21.50;99.90
48860;DHT22;34679;51.436;-2.518;2023-07-29T12:11:49;21.30;99.90
48860;DHT22;34679;51.436;-2.518;2023-07-29T12:14:16;21.40;99.90
48860;DHT22;34679;51.436;-2.518;2023-07-29T12:16:48;21.50;99.90
48860;DHT22;34679;51.436;-2.518;2023-07-29T12:19:15;21.50;99.90
48860;DHT22;34679;51.436;-2.518;2023-07-29T12:21:42;21.30;99.90
48860;DHT22;34679;51.436;-2.518;2023-07-29T12:24:07;21.40;99.90
48860;DHT22;34679;51.436;-2.518;2023-07-29T12:26:33;21.50;99.90
48860;DHT22;34679;51.436;-2.518;2023-07-29T12:29:17;21.40;99.90
48860;DHT22;34679;51.436;-2.518;2023-07-29T12:31:45;21.50;99.90
48860;DHT22;34679;51.436;-2.518;2023-07-29T12:34:21;21.30;99.90
48860;DHT22;34679;51.436;-2.518;2023-07-29T12:36:49;21.70;99.90
48860;DHT22;34679;51.436;-2.518;2023-07-29T12:39:26;21.50;99.90
48860;DHT22;34679;51.436;-2.518;2023-07-29T12:41:53;21.30;99.90
48860;DHT22;34679;51.436;-2.518;2023-07-29T12:44:20;21.50;99.90
48860;DHT22;34679;51.436;-2.518;2023-07-29T12:46:46;21.40;99.90
48860;DHT22;34679;51.436;-2.518;2023-07-29T12:49:12;21.40;99.90
48860;DHT22;34679;51.436;-2.518;2023-07-29T12:51:37;21.70;99.90
48860;DHT22;34679;51.436;-2.518;2023-07-29T12:54:04;21.70;99.90
48860;DHT22;34679;51.436;-2.518;2023-07-29T12:56:33;21.80;99.90
48860;DHT22;34679;51.436;-2.518;2023-07-29T12:59:00;21.90;99.90
48860;DHT22;34679;51.436;-2.518;2023-07-29T13:01:26;22.20;99.90
48860;DHT22;34679;51.436;-2.518;2023-07-29T13:03:53;22.10;99.90
48860;DHT22;34679;51.436;-2.518;2023-07-29T13:06:19;22.00;99.90
48860;DHT22;34679;51.436;-2.518;2023-07-29T13:08:45;22.30;99.90
48860;DHT22;34679;51.436;-2.518;2023-07-29T13:11:11;21.90;99.90
48860;DHT22;34679;51.436;-2.518;2023-07-29T13:13:37;21.80;99.90
48860;DHT22;34679;51.436;-2.518;2023-07-29T13:16:02;21.80;99.90
48860;DHT22;34679;51.436;-2.518;2023-07-29T13:18:28;21.60;99.90
48860;DHT22;34679;51.436;-2.518;2023-07-29T13:20:54;21.30;99.90
48860;DHT22;34679;51.436;-2.518;2023-07-29T13:23:20;21.40;99.90
48860;DHT22;34679;51.436;-2.518;2023-07-29T13:25:47;21.50;99.90
48860;DHT22;34679;51.436;-2.518;2023-07-29T13:28:13;21.30;99.90
48860;DHT22;34679;51.436;-2.518;2023-07-29T13:30:41;21.30;99.90
48860;DHT22;34679;51.436;-2.518;2023-07-29T13:33:08;21.00;99.90
48860;DHT22;34679;51.436;-2.518;2023-07-29T13:35:33;20.50;99.90
48860;DHT22;34679;51.436;-2.518;2023-07-29T13:38:00;20.30;99.90
48860;DHT22;34679;51.436;-2.518;2023-07-29T13:40:26;20.70;99.90
48860;DHT22;34679;51.436;-2.518;2023-07-29T13:42:52;20.80;99.90
48860;DHT22;34679;51.436;-2.518;2023-07-29T13:45:18;20.70;99.90
48860;DHT22;34679;51.436;-2.518;2023-07-29T13:47:44;20.90;99.90
48860;DHT22;34679;51.436;-2.518;2023-07-29T13:50:10;20.80;99.90
48860;DHT22;34679;51.436;-2.518;2023-07-29T13:52:36;20.80;99.90
48860;DHT22;34679;51.436;-2.518;2023-07-29T13:55:03;20.90;99.90
48860;DHT22;34679;51.436;-2.518;2023-07-29T13:57:29;21.00;99.90
48860;DHT22;34679;51.436;-2.518;2023-07-29T13:59:55;21.20;99.90
48860;DHT22;34679;51.436;-2.518;2023-07-29T14:02:20;21.60;99.90
48860;DHT22;34679;51.436;-2.518;2023-07-29T14:04:46;21.80;99.90
48860;DHT22;34679;51.436;-2.518;2023-07-29T14:07:12;21.80;99.90
48860;DHT22;34679;51.436;-2.518;2023-07-29T14:09:37;21.50;99.90
48860;DHT22;34679;51.436;-2.518;2023-07-29T14:12:04;21.30;99.90
48860;DHT22;34679;51.436;-2.518;2023-07-29T14:14:30;21.20;99.90
48860;DHT22;34679;51.436;-2.518;2023-07-29T14:16:56;21.20;99.90
48860;DHT22;34679;51.436;-2.518;2023-07-29T14:19:23;21.30;99.90
48860;DHT22;34679;51.436;-2.518;2023-07-29T14:21:49;21.50;99.90
48860;DHT22;34679;51.436;-2.518;2023-07-29T14:24:14;21.40;99.90
48860;DHT22;34679;51.436;-2.518;2023-07-29T14:26:41;21.00;99.90
48860;DHT22;34679;51.436;-2.518;2023-07-29T14:29:07;21.20;99.90
48860;DHT22;34679;51.436;-2.518;2023-07-29T14:31:33;21.40;99.90
48860;DHT22;34679;51.436;-2.518;2023-07-29T14:33:58;21.50;99.90
48860;DHT22;34679;51.436;-2.518;2023-07-29T14:36:25;21.40;99.90
48860;DHT22;34679;51.436;-2.518;2023-07-29T14:38:51;21.10;99.90
48860;DHT22;34679;51.436;-2.518;2023-07-29T14:41:17;21.10;99.90
48860;DHT22;34679;51.436;-2.518;2023-07-29T14:43:42;21.00;99.90
48860;DHT22;34679;51.436;-2.518;2023-07-29T14:46:08;21.00;99.90
48860;DHT22;34679;51.436;-2.518;2023-07-29T14:48:34;21.10;99.90
48860;DHT22;34679;51.436;-2.518;2023-07-29T14:50:59;21.10;99.90
48860;DHT22;34679;51.436;-2.518;2023-07-29T14:53:25;21.20;99.90
48860;DHT22;34679;51.436;-2.518;2023-07-29T14:55:51;20.80;99.90
48860;DHT22;34679;51.436;-2.518;2023-07-29T14:58:17;20.70;99.90
48860;DHT22;34679;51.436;-2.518;2023-07-29T15:00:42;20.90;99.90
48860;DHT22;34679;51.436;-2.518;2023-07-29T15:03:08;20.90;99.90
48860;DHT22;34679;51.436;-2.518;2023-07-29T15:05:34;20.70;99.90
48860;DHT22;34679;51.436;-2.518;2023-07-29T15:07:59;20.70;99.90
48860;DHT22;34679;51.436;-2.518;2023-07-29T15:10:25;20.80;99.90
48860;DHT22;34679;51.436;-2.518;2023-07-29T15:12:52;21.00;99.90
48860;DHT22;34679;51.436;-2.518;2023-07-29T15:15:18;21.20;99.90
48860;DHT22;34679;51.436;-2.518;2023-07-29T15:17:44;21.00;99.90
48860;DHT22;34679;51.436;-2.518;2023-07-29T15:20:10;20.80;99.90
48860;DHT22;34679;51.436;-2.518;2023-07-29T15:22:36;20.60;99.90
48860;DHT22;34679;51.436;-2.518;2023-07-29T15:25:02;20.70;99.90
48860;DHT22;34679;51.436;-2.518;2023-07-29T15:27:29;20.60;99.90
48860;DHT22;34679;51.436;-2.518;2023-07-29T15:29:55;20.50;99.90
48860;DHT22;34679;51.436;-2.518;2023-07-29T15:32:22;20.60;99.90